Weather at San Benito Airport

Public forecast

Using degrees Celsius for public forecast. Weather courtesy of forecast.io.

Closest aviation weather report (METAR) to San Benito Airport

Closest report is Rosario Islas Malvinas International Airport, 67.9 nm (125.7 km) SSW.

2024/02/24 02:00 (retrieved 48 minutes ago)

SAAR 240200Z 20004KT CAVOK 19/17 Q1017

Closest aviation forecast (TAF) to San Benito Airport

Forecast is more than 12 hours old.

Closest forecast is General Urquiza Airport, 1.7 nm (3.1 km) WNW.

2024/02/23 10:27 Ammendment (retrieved 16 hours ago)

TAF AMD TAF AMD SAAP 230920Z 2310/2406 22010KT 9999 SCT020 FEW045CB TX25/2318Z TN23/2310Z TEMPO 2310/2317 22015G25KT 3000 TSRA BKN020 FEW050CB BECMG 2400/2402 16005KT CAVOK